createdAt,value
2023-02-11T00:01:14.386Z,117.70
2023-02-11T00:03:41.770Z,114.77
2023-02-11T00:06:11.988Z,121.77
2023-02-11T00:08:40.116Z,123.70
2023-02-11T00:11:07.819Z,128.13
2023-02-11T00:13:34.907Z,127.27
2023-02-11T00:16:10.738Z,123.30
2023-02-11T00:18:38.279Z,124.93
2023-02-11T00:21:10.702Z,132.20
2023-02-11T00:23:38.271Z,123.40
2023-02-11T00:26:14.825Z,129.63
2023-02-11T00:28:43.736Z,122.20
2023-02-11T00:31:11.985Z,122.30
2023-02-11T00:33:39.289Z,122.43
2023-02-11T00:36:14.487Z,110.67
2023-02-11T00:38:44.458Z,111.77
2023-02-11T00:41:13.557Z,112.20
2023-02-11T00:43:41.338Z,105.53
2023-02-11T00:46:08.831Z,105.43
2023-02-11T00:48:36.490Z,99.67
2023-02-11T00:51:04.381Z,108.03
2023-02-11T00:53:32.761Z,99.17
2023-02-11T00:56:01.202Z,100.80
2023-02-11T00:58:28.887Z,99.63
2023-02-11T01:00:56.843Z,102.93
2023-02-11T01:03:25.283Z,94.40
2023-02-11T01:05:52.777Z,103.67
2023-02-11T01:08:20.402Z,97.47
2023-02-11T01:11:04.728Z,92.87
2023-02-11T01:13:33.946Z,103.43
2023-02-11T01:16:01.437Z,93.63
2023-02-11T01:18:28.706Z,91.27
2023-02-11T01:20:55.962Z,96.63
2023-02-11T01:23:24.153Z,96.73
2023-02-11T01:25:51.916Z,92.70
2023-02-11T01:28:21.877Z,86.60
2023-02-11T01:30:49.175Z,80.03
2023-02-11T01:33:17.433Z,87.43
2023-02-11T01:35:45.281Z,80.53
2023-02-11T01:38:24.046Z,82.97
2023-02-11T01:41:05.606Z,86.33
2023-02-11T01:43:36.823Z,82.60
2023-02-11T01:46:27.024Z,82.53
2023-02-11T01:48:59.491Z,79.63
2023-02-11T01:51:49.997Z,80.70
2023-02-11T01:54:43.171Z,77.77
2023-02-11T01:57:25.338Z,92.13
2023-02-11T02:00:00.007Z,77.93
2023-02-11T02:02:50.986Z,70.30
2023-02-11T02:05:35.748Z,79.23
2023-02-11T02:08:29.543Z,74.30
2023-02-11T02:11:00.632Z,77.20
2023-02-11T02:13:30.759Z,73.20
2023-02-11T02:16:11.884Z,71.97
2023-02-11T02:18:57.664Z,69.03
2023-02-11T02:21:43.166Z,72.23
2023-02-11T02:24:28.151Z,69.60
2023-02-11T02:27:20.553Z,70.70
2023-02-11T02:30:13.315Z,66.70
2023-02-11T02:33:22.622Z,65.43
2023-02-11T02:36:04.784Z,67.97
2023-02-11T02:38:47.140Z,61.30
2023-02-11T02:41:17.866Z,71.77
2023-02-11T02:43:48.631Z,77.07
2023-02-11T02:46:22.527Z,81.23
2023-02-11T02:48:50.992Z,77.40
2023-02-11T02:51:39.944Z,78.10
2023-02-11T02:54:18.781Z,71.40
2023-02-11T02:56:51.820Z,78.10
2023-02-11T02:59:27.794Z,73.17
2023-02-11T03:02:04.230Z,76.03
2023-02-11T03:04:37.251Z,68.87
2023-02-11T03:07:14.880Z,72.10
2023-02-11T03:09:48.150Z,65.90
2023-02-11T03:12:16.629Z,69.40
2023-02-11T03:14:45.201Z,64.73
2023-02-11T03:17:14.594Z,71.57
2023-02-11T03:19:45.454Z,69.17
2023-02-11T03:22:20.839Z,74.17
2023-02-11T03:24:48.691Z,67.53
2023-02-11T03:27:27.419Z,65.57
2023-02-11T03:30:12.013Z,67.20
2023-02-11T03:32:44.148Z,74.13
2023-02-11T03:35:20.026Z,68.30
2023-02-11T03:37:52.846Z,65.33
2023-02-11T03:40:27.069Z,62.80
2023-02-11T03:43:12.752Z,67.80
2023-02-11T03:45:40.724Z,65.70
2023-02-11T03:48:16.085Z,66.10
2023-02-11T03:50:46.429Z,64.57
2023-02-11T03:53:15.167Z,65.07
2023-02-11T03:55:44.016Z,61.43
2023-02-11T03:58:11.467Z,57.53
2023-02-11T04:00:41.659Z,63.30
2023-02-11T04:03:10.551Z,62.47
2023-02-11T04:05:38.205Z,62.07
2023-02-11T04:08:05.873Z,68.43
2023-02-11T04:10:33.242Z,67.60
2023-02-11T04:13:00.287Z,65.00
2023-02-11T04:15:27.748Z,61.43
2023-02-11T04:17:54.836Z,66.97
2023-02-11T04:20:22.047Z,63.77
2023-02-11T04:22:49.158Z,63.93
2023-02-11T04:25:16.245Z,68.43
2023-02-11T04:27:43.462Z,65.70
2023-02-11T04:30:12.547Z,58.30
2023-02-11T04:32:39.868Z,68.03
2023-02-11T04:35:07.566Z,65.50
2023-02-11T04:37:34.813Z,60.80
2023-02-11T04:40:02.006Z,58.47
2023-02-11T04:42:29.079Z,59.40
2023-02-11T04:44:56.181Z,65.07
2023-02-11T04:47:23.348Z,57.60
2023-02-11T04:49:50.776Z,61.60
2023-02-11T04:52:17.939Z,64.53
2023-02-11T04:54:46.842Z,62.20
2023-02-11T04:57:14.250Z,60.03
2023-02-11T04:59:41.922Z,59.00
2023-02-11T05:02:09.076Z,63.03
2023-02-11T05:04:36.102Z,62.80
2023-02-11T05:07:03.367Z,68.17
2023-02-11T05:09:30.843Z,59.63
2023-02-11T05:11:57.916Z,62.00
2023-02-11T05:14:25.107Z,63.20
2023-02-11T05:16:52.350Z,65.17
2023-02-11T05:19:19.406Z,71.10
2023-02-11T05:22:01.475Z,68.40
2023-02-11T05:24:29.933Z,67.97
2023-02-11T05:26:58.482Z,67.33
2023-02-11T05:29:25.501Z,64.93
2023-02-11T05:31:52.971Z,65.10
2023-02-11T05:34:20.131Z,58.13
2023-02-11T05:36:47.139Z,60.67
2023-02-11T05:39:14.461Z,60.13
2023-02-11T05:41:41.599Z,59.83
2023-02-11T05:44:09.047Z,66.53
2023-02-11T05:46:36.620Z,68.93
2023-02-11T05:49:04.128Z,69.33
2023-02-11T05:51:31.332Z,69.43
2023-02-11T05:53:58.499Z,68.93
2023-02-11T05:56:25.568Z,65.37
2023-02-11T05:58:52.842Z,64.03
2023-02-11T06:01:19.909Z,64.97
2023-02-11T06:03:47.035Z,67.53
2023-02-11T06:06:14.166Z,64.40
2023-02-11T06:08:41.727Z,64.07
2023-02-11T06:11:09.369Z,61.13
2023-02-11T06:13:36.898Z,64.07
2023-02-11T06:16:04.329Z,67.90
2023-02-11T06:18:33.664Z,73.03
2023-02-11T06:21:01.026Z,67.73
2023-02-11T06:23:30.347Z,63.70
2023-02-11T06:26:03.502Z,67.93
2023-02-11T06:28:35.998Z,74.50
2023-02-11T06:31:07.735Z,73.13
2023-02-11T06:33:35.561Z,79.43
2023-02-11T06:36:03.673Z,81.27
2023-02-11T06:38:31.248Z,82.87
2023-02-11T06:40:58.469Z,77.37
2023-02-11T06:43:25.520Z,78.43
2023-02-11T06:45:54.524Z,82.93
2023-02-11T06:48:22.620Z,82.13
2023-02-11T06:50:49.845Z,87.10
2023-02-11T06:53:16.997Z,85.53
2023-02-11T06:55:44.344Z,84.40
2023-02-11T06:58:11.602Z,82.50
2023-02-11T07:00:38.957Z,85.53
2023-02-11T07:03:06.413Z,77.97
2023-02-11T07:05:34.417Z,74.67
2023-02-11T07:08:01.698Z,84.97
2023-02-11T07:10:28.774Z,81.57
2023-02-11T07:12:58.640Z,81.47
2023-02-11T07:15:26.264Z,75.90
2023-02-11T07:17:53.422Z,74.47
2023-02-11T07:20:20.620Z,78.77
2023-02-11T07:22:47.917Z,73.87
2023-02-11T07:25:15.112Z,73.23
2023-02-11T07:27:42.205Z,65.27
2023-02-11T07:30:09.994Z,67.03
2023-02-11T07:32:37.225Z,62.97
2023-02-11T07:35:04.870Z,64.50
2023-02-11T07:37:35.102Z,68.50
2023-02-11T07:40:02.306Z,63.17
2023-02-11T07:42:29.535Z,64.50
2023-02-11T07:44:56.828Z,69.70
2023-02-11T07:47:24.001Z,68.53
2023-02-11T07:49:51.203Z,63.80
2023-02-11T07:52:18.282Z,62.17
2023-02-11T07:54:45.590Z,58.97
2023-02-11T07:57:13.013Z,59.40
2023-02-11T07:59:40.077Z,60.17
2023-02-11T08:02:07.430Z,55.60
2023-02-11T08:04:34.788Z,59.30
2023-02-11T08:07:02.791Z,54.87
2023-02-11T08:09:30.862Z,53.73
2023-02-11T08:12:00.074Z,54.47
2023-02-11T08:14:27.482Z,54.00
2023-02-11T08:16:54.690Z,54.47
2023-02-11T08:19:21.774Z,58.37
2023-02-11T08:21:49.783Z,53.53
2023-02-11T08:24:17.012Z,58.43
2023-02-11T08:26:44.432Z,55.20
2023-02-11T08:29:13.931Z,52.47
2023-02-11T08:31:43.322Z,64.73
2023-02-11T08:34:11.939Z,50.17
2023-02-11T08:36:40.984Z,48.43
2023-02-11T08:39:19.089Z,46.37
2023-02-11T08:41:52.358Z,49.13
2023-02-11T08:44:20.960Z,47.30
2023-02-11T08:46:48.465Z,47.42
2023-02-11T08:49:16.051Z,48.65
2023-02-11T08:51:43.962Z,49.17
2023-02-11T08:54:12.153Z,48.75
2023-02-11T08:56:40.519Z,47.03
2023-02-11T08:59:09.554Z,43.50
2023-02-11T09:01:37.128Z,44.05
2023-02-11T09:04:04.503Z,43.28
2023-02-11T09:06:32.639Z,39.90
2023-02-11T09:08:59.954Z,35.65
2023-02-11T09:11:33.331Z,42.03
2023-02-11T09:14:01.305Z,39.80
2023-02-11T09:16:30.976Z,38.08
2023-02-11T09:18:59.739Z,38.25
2023-02-11T09:21:27.762Z,38.28
2023-02-11T09:23:55.377Z,37.83
2023-02-11T09:26:28.194Z,42.08
2023-02-11T09:28:55.689Z,43.95
2023-02-11T09:31:25.521Z,37.35
2023-02-11T09:33:57.146Z,38.45
2023-02-11T09:36:26.848Z,33.50
2023-02-11T09:38:54.206Z,35.37
2023-02-11T09:41:24.292Z,37.73
2023-02-11T09:44:00.063Z,38.43
2023-02-11T09:46:31.423Z,39.40
2023-02-11T09:48:59.985Z,37.90
2023-02-11T09:51:42.753Z,40.30
2023-02-11T09:54:39.296Z,39.73
2023-02-11T09:57:26.551Z,41.10
2023-02-11T09:59:57.205Z,39.33
2023-02-11T10:03:01.720Z,39.17
2023-02-11T10:05:56.705Z,36.67
2023-02-11T10:08:51.659Z,39.90
2023-02-11T10:11:37.053Z,34.67
2023-02-11T10:14:24.998Z,37.20
2023-02-11T10:17:10.447Z,40.00
2023-02-11T10:19:55.871Z,31.60
2023-02-11T10:22:28.910Z,39.63
2023-02-11T10:25:00.819Z,32.53
2023-02-11T10:27:36.362Z,39.40
2023-02-11T10:30:19.278Z,42.13
2023-02-11T10:32:54.947Z,45.83
2023-02-11T10:35:23.876Z,37.67
2023-02-11T10:37:51.071Z,41.03
2023-02-11T10:40:33.015Z,40.87
2023-02-11T10:43:05.751Z,37.40
2023-02-11T10:45:48.728Z,43.10
2023-02-11T10:48:40.114Z,37.70
2023-02-11T10:51:28.121Z,37.77
2023-02-11T10:54:05.303Z,39.80
2023-02-11T10:56:38.897Z,44.50
2023-02-11T10:59:15.000Z,38.87
2023-02-11T11:01:48.724Z,42.63
2023-02-11T11:04:32.269Z,44.13
2023-02-11T11:07:30.084Z,42.60
2023-02-11T11:10:05.128Z,42.23
2023-02-11T11:12:49.056Z,39.53
2023-02-11T11:15:18.908Z,41.27
2023-02-11T11:17:46.289Z,41.53
2023-02-11T11:20:33.636Z,41.97
2023-02-11T11:23:16.293Z,44.20
2023-02-11T11:25:46.634Z,39.13
2023-02-11T11:28:25.810Z,36.33
2023-02-11T11:30:55.690Z,34.93
2023-02-11T11:33:33.669Z,40.87
2023-02-11T11:36:09.928Z,38.70
2023-02-11T11:38:43.893Z,43.30
2023-02-11T11:41:19.143Z,38.27
2023-02-11T11:44:04.535Z,35.53
2023-02-11T11:46:42.272Z,40.43
2023-02-11T11:49:31.036Z,40.37
2023-02-11T11:52:10.752Z,37.03
2023-02-11T11:54:39.717Z,39.83
2023-02-11T11:57:16.391Z,39.47
2023-02-11T11:59:43.772Z,39.47
2023-02-11T12:02:38.437Z,40.70
2023-02-11T12:05:47.217Z,35.60
2023-02-11T12:08:35.549Z,42.40
2023-02-11T12:11:33.636Z,47.23
2023-02-11T12:14:06.974Z,42.73
2023-02-11T12:16:45.959Z,45.07
2023-02-11T12:19:34.227Z,46.80
2023-02-11T12:22:29.850Z,43.23
2023-02-11T12:25:21.253Z,40.57
2023-02-11T12:28:10.588Z,45.20
2023-02-11T12:31:06.969Z,42.73
2023-02-11T12:33:57.992Z,37.10
2023-02-11T12:37:03.085Z,41.63
2023-02-11T12:39:51.234Z,45.13
2023-02-11T12:42:39.284Z,47.83
2023-02-11T12:45:28.639Z,50.17
2023-02-11T12:48:43.884Z,44.30
2023-02-11T12:51:32.092Z,48.47
2023-02-11T12:54:11.217Z,47.67
2023-02-11T12:56:45.787Z,47.73
2023-02-11T12:59:26.061Z,46.47
2023-02-11T13:01:55.954Z,45.23
2023-02-11T13:04:57.473Z,43.73
2023-02-11T13:07:37.100Z,47.93
2023-02-11T13:10:07.837Z,48.47
2023-02-11T13:12:55.692Z,50.37
2023-02-11T13:15:24.009Z,47.37
2023-02-11T13:18:22.720Z,50.87
2023-02-11T13:21:14.985Z,47.87
2023-02-11T13:23:52.452Z,34.73
2023-02-11T13:26:21.797Z,48.30
2023-02-11T13:29:10.034Z,49.80
2023-02-11T13:31:37.395Z,52.97
2023-02-11T13:34:25.230Z,51.00
2023-02-11T13:36:57.681Z,46.77
2023-02-11T13:39:25.071Z,49.93
2023-02-11T13:42:03.347Z,51.43
2023-02-11T13:44:33.987Z,48.97
2023-02-11T13:47:06.161Z,51.40
2023-02-11T13:49:41.252Z,51.87
2023-02-11T13:52:38.936Z,48.33
2023-02-11T13:55:21.661Z,52.67
2023-02-11T13:58:29.606Z,50.70
2023-02-11T14:00:56.987Z,52.50
2023-02-11T14:03:46.427Z,49.57
2023-02-11T14:06:35.685Z,48.93
2023-02-11T14:09:17.314Z,51.03
2023-02-11T14:11:48.863Z,50.17
2023-02-11T14:14:41.920Z,58.03
2023-02-11T14:17:09.483Z,54.37
2023-02-11T14:19:43.976Z,50.87
2023-02-11T14:22:24.025Z,53.57
2023-02-11T14:24:57.004Z,49.27
2023-02-11T14:27:40.833Z,57.70
2023-02-11T14:30:20.639Z,54.37
2023-02-11T14:33:08.975Z,54.33
2023-02-11T14:36:19.919Z,50.00
2023-02-11T14:39:03.725Z,54.93
2023-02-11T14:41:35.876Z,52.97
2023-02-11T14:44:15.854Z,52.87
2023-02-11T14:46:48.049Z,49.70
2023-02-11T14:49:25.116Z,48.93
2023-02-11T14:51:56.851Z,52.00
2023-02-11T14:54:28.412Z,55.47
2023-02-11T14:57:21.856Z,49.07
2023-02-11T15:00:02.577Z,49.87
2023-02-11T15:02:34.327Z,51.37
2023-02-11T15:05:34.809Z,53.00
2023-02-11T15:08:03.700Z,49.60
2023-02-11T15:10:37.312Z,38.33
2023-02-11T15:13:05.905Z,48.50
2023-02-11T15:15:35.987Z,54.63
2023-02-11T15:18:04.863Z,53.67
2023-02-11T15:20:33.852Z,58.03
2023-02-11T15:23:04.242Z,59.23
2023-02-11T15:25:34.069Z,63.23
2023-02-11T15:28:01.672Z,63.17
2023-02-11T15:30:36.172Z,61.20
2023-02-11T15:33:06.188Z,65.10
2023-02-11T15:35:41.531Z,59.57
2023-02-11T15:38:13.406Z,68.40
2023-02-11T15:40:41.127Z,65.97
2023-02-11T15:43:10.880Z,73.97
2023-02-11T15:45:42.851Z,79.10
2023-02-11T15:48:15.998Z,79.33
2023-02-11T15:50:51.272Z,74.23
2023-02-11T15:53:23.862Z,75.70
2023-02-11T15:55:54.440Z,79.67
2023-02-11T15:58:23.007Z,86.80
2023-02-11T16:00:56.710Z,87.33
2023-02-11T16:03:27.973Z,87.57
2023-02-11T16:05:59.943Z,87.97
2023-02-11T16:08:30.075Z,92.63
2023-02-11T16:11:00.021Z,88.57
2023-02-11T16:13:29.671Z,93.30
2023-02-11T16:16:04.839Z,84.90
2023-02-11T16:18:52.105Z,83.20
2023-02-11T16:21:39.504Z,94.53
2023-02-11T16:24:22.573Z,97.87
2023-02-11T16:26:53.354Z,99.77
2023-02-11T16:29:28.343Z,100.50
2023-02-11T16:32:25.225Z,97.07
2023-02-11T16:34:55.778Z,98.53
2023-02-11T16:37:23.008Z,98.30
2023-02-11T16:39:50.382Z,102.33
2023-02-11T16:42:17.572Z,100.33
2023-02-11T16:44:44.732Z,109.70
2023-02-11T16:47:25.080Z,101.90
2023-02-11T16:49:53.038Z,115.77
2023-02-11T16:52:21.901Z,104.13
2023-02-11T16:54:49.543Z,123.73
2023-02-11T16:57:22.604Z,109.27
2023-02-11T16:59:50.410Z,112.87
2023-02-11T17:02:31.010Z,103.57
2023-02-11T17:05:03.606Z,94.87
2023-02-11T17:07:31.234Z,103.40
2023-02-11T17:09:58.478Z,103.27
2023-02-11T17:12:25.887Z,106.97
2023-02-11T17:14:54.179Z,103.83
2023-02-11T17:17:23.875Z,114.47
2023-02-11T17:19:51.421Z,107.10
2023-02-11T17:22:18.993Z,111.03
2023-02-11T17:24:46.072Z,108.80
2023-02-11T17:27:13.293Z,114.40
2023-02-11T17:29:40.517Z,110.57
2023-02-11T17:32:07.945Z,99.67
2023-02-11T17:34:35.084Z,114.50
2023-02-11T17:37:09.026Z,118.20
2023-02-11T17:39:40.339Z,105.93
2023-02-11T17:42:08.871Z,97.30
2023-02-11T17:44:36.053Z,103.93
2023-02-11T17:47:03.308Z,109.73
2023-02-11T17:49:30.664Z,105.70
2023-02-11T17:51:57.801Z,104.73
2023-02-11T17:54:25.155Z,93.83
2023-02-11T17:56:56.381Z,89.60
2023-02-11T17:59:26.021Z,91.80
2023-02-11T18:01:53.051Z,109.33
2023-02-11T18:04:20.442Z,103.67
2023-02-11T18:06:47.921Z,106.70
2023-02-11T18:09:15.239Z,111.77
2023-02-11T18:11:42.355Z,102.17
2023-02-11T18:14:11.066Z,100.17
2023-02-11T18:16:39.795Z,106.33
2023-02-11T18:19:07.830Z,93.57
2023-02-11T18:21:35.288Z,104.53
2023-02-11T18:24:06.419Z,98.03
2023-02-11T18:26:34.715Z,102.50
2023-02-11T18:29:04.043Z,101.33
2023-02-11T18:31:31.601Z,103.23
2023-02-11T18:33:58.837Z,97.63
2023-02-11T18:36:26.126Z,97.23
2023-02-11T18:38:54.359Z,94.47
2023-02-11T18:41:21.666Z,100.27
2023-02-11T18:43:49.140Z,106.33
2023-02-11T18:46:16.594Z,103.20
2023-02-11T18:48:45.156Z,103.57
2023-02-11T18:51:15.135Z,96.87
2023-02-11T18:53:43.245Z,104.50
2023-02-11T18:56:13.507Z,101.53
2023-02-11T18:58:41.038Z,97.10
2023-02-11T19:01:17.789Z,93.50
2023-02-11T19:03:45.683Z,96.43
2023-02-11T19:06:22.170Z,98.43
2023-02-11T19:08:49.275Z,103.83
2023-02-11T19:11:19.088Z,102.23
2023-02-11T19:13:51.379Z,100.97
2023-02-11T19:16:19.955Z,101.33
2023-02-11T19:18:47.167Z,108.20
2023-02-11T19:21:14.250Z,106.80
2023-02-11T19:23:41.444Z,102.07
2023-02-11T19:26:08.500Z,104.63
2023-02-11T19:28:37.157Z,103.70
2023-02-11T19:31:09.430Z,107.37
2023-02-11T19:33:36.929Z,98.67
2023-02-11T19:36:08.280Z,106.60
2023-02-11T19:38:35.968Z,99.40
2023-02-11T19:41:03.037Z,105.60
2023-02-11T19:43:30.470Z,106.77
2023-02-11T19:45:58.563Z,103.07
2023-02-11T19:48:25.990Z,107.60
2023-02-11T19:50:53.546Z,102.40
2023-02-11T19:53:21.236Z,102.20
2023-02-11T19:55:48.701Z,100.03
2023-02-11T19:58:17.185Z,108.47
2023-02-11T20:00:44.489Z,109.47
2023-02-11T20:03:11.494Z,105.73
2023-02-11T20:05:43.482Z,107.17
2023-02-11T20:08:11.215Z,101.77
2023-02-11T20:10:38.306Z,121.00
2023-02-11T20:13:05.674Z,106.93
2023-02-11T20:15:32.849Z,110.27
2023-02-11T20:17:59.979Z,107.33
2023-02-11T20:20:27.056Z,109.00
2023-02-11T20:22:54.317Z,111.40
2023-02-11T20:25:21.513Z,104.40
2023-02-11T20:27:48.542Z,109.60
2023-02-11T20:30:15.908Z,103.43
2023-02-11T20:32:42.979Z,115.97
2023-02-11T20:35:10.263Z,107.63
2023-02-11T20:37:38.824Z,86.57
2023-02-11T20:40:07.120Z,110.70
2023-02-11T20:42:34.140Z,110.67
2023-02-11T20:45:01.481Z,109.70
2023-02-11T20:47:28.820Z,109.33
2023-02-11T20:49:56.146Z,111.97
2023-02-11T20:52:23.312Z,97.43
2023-02-11T20:54:50.423Z,77.73
2023-02-11T20:57:17.743Z,104.87
2023-02-11T20:59:44.916Z,113.20
2023-02-11T21:02:13.385Z,105.17
2023-02-11T21:04:40.642Z,103.87
2023-02-11T21:07:07.798Z,102.87
2023-02-11T21:09:35.098Z,105.47
2023-02-11T21:12:02.660Z,115.00
2023-02-11T21:14:30.127Z,101.57
2023-02-11T21:16:57.656Z,104.33
2023-02-11T21:19:25.012Z,108.57
2023-02-11T21:21:52.888Z,105.80
2023-02-11T21:24:19.878Z,106.07
2023-02-11T21:26:46.995Z,101.27
2023-02-11T21:29:14.107Z,105.80
2023-02-11T21:31:41.308Z,109.83
2023-02-11T21:34:08.561Z,114.90
2023-02-11T21:36:35.950Z,107.47
2023-02-11T21:39:04.168Z,117.97
2023-02-11T21:41:31.346Z,111.73
2023-02-11T21:43:59.102Z,120.57
2023-02-11T21:46:27.116Z,120.87
2023-02-11T21:48:54.271Z,122.80
2023-02-11T21:51:24.391Z,119.37
2023-02-11T21:53:56.979Z,122.70
2023-02-11T21:56:28.167Z,109.77
2023-02-11T21:58:57.232Z,112.77
2023-02-11T22:01:29.927Z,126.40
2023-02-11T22:03:57.967Z,112.53
2023-02-11T22:06:31.191Z,117.33
2023-02-11T22:08:59.443Z,121.13
2023-02-11T22:11:26.490Z,120.60
2023-02-11T22:13:55.485Z,125.57
2023-02-11T22:16:23.366Z,119.53
2023-02-11T22:18:51.535Z,128.50
2023-02-11T22:21:21.941Z,123.93
2023-02-11T22:23:50.234Z,125.27
2023-02-11T22:26:22.911Z,125.73
2023-02-11T22:28:50.917Z,131.23
2023-02-11T22:31:24.984Z,124.30
2023-02-11T22:33:52.568Z,129.30
2023-02-11T22:36:28.856Z,127.07
2023-02-11T22:38:56.499Z,131.50
2023-02-11T22:41:24.936Z,132.70
2023-02-11T22:43:52.084Z,134.27
2023-02-11T22:46:20.183Z,132.40
2023-02-11T22:48:47.831Z,132.17
2023-02-11T22:51:33.662Z,136.13
2023-02-11T22:54:03.577Z,133.03
2023-02-11T22:56:32.502Z,141.67
2023-02-11T22:59:01.253Z,136.10
2023-02-11T23:01:29.504Z,132.70
2023-02-11T23:03:56.995Z,129.47
2023-02-11T23:06:24.334Z,133.20
2023-02-11T23:08:51.699Z,130.90
2023-02-11T23:11:22.184Z,125.10
2023-02-11T23:13:51.027Z,134.43
2023-02-11T23:16:21.909Z,125.30
2023-02-11T23:18:49.659Z,125.97
2023-02-11T23:21:24.409Z,137.23
2023-02-11T23:24:04.218Z,130.70
2023-02-11T23:26:31.661Z,132.90
2023-02-11T23:28:59.710Z,136.87
2023-02-11T23:31:30.603Z,129.40
2023-02-11T23:33:58.097Z,130.90
2023-02-11T23:36:25.397Z,126.70
2023-02-11T23:38:52.490Z,138.53
2023-02-11T23:41:20.296Z,136.13
2023-02-11T23:43:52.458Z,141.40
2023-02-11T23:46:21.927Z,135.50
2023-02-11T23:48:50.385Z,126.77
2023-02-11T23:51:18.257Z,139.60
2023-02-11T23:53:46.284Z,129.00
2023-02-11T23:56:22.605Z,143.50
2023-02-11T23:58:51.788Z,130.00
